createdAt,value
2019-04-21T00:00:58.588Z,10.00
2019-04-21T00:06:07.522Z,9.70
2019-04-21T00:11:00.454Z,9.90
2019-04-21T00:15:35.714Z,10.40
2019-04-21T00:20:33.124Z,10.30
2019-04-21T00:25:32.584Z,9.90
2019-04-21T00:30:32.952Z,9.60
2019-04-21T00:35:04.736Z,9.40
2019-04-21T00:40:13.970Z,9.20
2019-04-21T00:45:00.797Z,9.70
2019-04-21T00:49:55.390Z,9.70
2019-04-21T00:54:52.117Z,9.70
2019-04-21T00:59:42.063Z,9.40
2019-04-21T01:04:33.885Z,9.10
2019-04-21T01:09:16.591Z,8.60
2019-04-21T01:14:13.194Z,8.60
2019-04-21T01:19:01.895Z,8.60
2019-04-21T01:23:31.726Z,8.60
2019-04-21T01:28:40.031Z,9.00
2019-04-21T01:33:41.182Z,9.00
2019-04-21T01:38:29.104Z,8.70
2019-04-21T01:43:17.598Z,8.10
2019-04-21T01:48:01.330Z,8.10
2019-04-21T01:53:08.620Z,7.90
2019-04-21T02:03:26.284Z,8.40
2019-04-21T02:07:54.772Z,8.20
2019-04-21T02:12:55.327Z,8.20
2019-04-21T02:17:45.300Z,7.90
2019-04-21T02:22:56.071Z,7.60
2019-04-21T02:27:26.105Z,7.40
2019-04-21T02:32:26.164Z,7.20
2019-04-21T02:42:07.916Z,7.60
2019-04-21T02:46:58.786Z,7.80
2019-04-21T02:56:48.192Z,7.00
2019-04-21T03:01:56.591Z,6.90
2019-04-21T03:06:34.978Z,6.70
2019-04-21T03:11:17.576Z,6.40
2019-04-21T03:16:23.293Z,6.40
2019-04-21T03:21:13.402Z,6.90
2019-04-21T03:26:00.957Z,7.00
2019-04-21T03:40:28.580Z,6.40
2019-04-21T03:45:30.968Z,6.20
2019-04-21T03:50:16.298Z,5.90
2019-04-21T03:55:44.881Z,5.90
2019-04-21T04:00:21.596Z,6.40
2019-04-21T04:05:03.651Z,6.50
2019-04-21T04:09:52.457Z,6.50
2019-04-21T04:24:39.704Z,5.80
2019-04-21T04:29:26.357Z,5.50
2019-04-21T04:34:16.326Z,5.40
2019-04-21T04:39:17.619Z,6.40
2019-04-21T04:44:11.185Z,6.30
2019-04-21T04:48:55.344Z,6.20
2019-04-21T04:58:35.567Z,5.80
2019-04-21T05:03:24.312Z,5.60
2019-04-21T05:08:19.809Z,5.50
2019-04-21T05:13:04.298Z,5.40
2019-04-21T05:22:41.225Z,6.20
2019-04-21T05:27:23.435Z,6.50
2019-04-21T05:32:38.242Z,6.30
2019-04-21T05:37:15.825Z,6.30
2019-04-21T05:41:54.271Z,6.20
2019-04-21T05:47:07.941Z,6.10
2019-04-21T05:51:49.889Z,6.10
2019-04-21T05:56:48.712Z,6.20
2019-04-21T06:01:44.629Z,6.80
2019-04-21T06:06:34.151Z,7.40
2019-04-21T06:16:20.164Z,7.40
2019-04-21T06:21:05.548Z,7.50
2019-04-21T06:35:55.356Z,8.00
2019-04-21T06:40:41.196Z,8.60
2019-04-21T06:45:20.149Z,9.60
2019-04-21T06:50:07.547Z,9.90
2019-04-21T06:59:50.016Z,10.20
2019-04-21T07:04:47.003Z,10.40
2019-04-21T07:09:36.450Z,11.00
2019-04-21T07:19:34.935Z,11.60
2019-04-21T07:24:14.126Z,12.50
2019-04-21T07:29:07.863Z,12.50
2019-04-21T07:34:09.014Z,12.60
2019-04-21T07:38:42.090Z,12.70
2019-04-21T07:43:24.719Z,12.80
2019-04-21T07:48:29.209Z,13.00
2019-04-21T07:53:23.918Z,13.30
2019-04-21T07:58:07.322Z,14.10
2019-04-21T08:03:05.241Z,14.30
2019-04-21T08:07:51.985Z,14.20
2019-04-21T08:12:36.215Z,14.20
2019-04-21T08:17:30.252Z,14.20
2019-04-21T08:22:25.724Z,14.60
2019-04-21T08:27:22.248Z,14.60
2019-04-21T08:32:11.961Z,15.20
2019-04-21T08:36:55.334Z,15.60
2019-04-21T08:41:46.443Z,15.60
2019-04-21T08:46:40.579Z,15.60
2019-04-21T08:56:21.520Z,15.90
2019-04-21T09:06:42.011Z,17.20
2019-04-21T09:11:16.204Z,17.20
2019-04-21T09:16:12.529Z,17.30
2019-04-21T09:21:04.576Z,17.30
2019-04-21T09:25:58.769Z,17.30
2019-04-21T09:30:26.405Z,17.60
2019-04-21T09:35:20.311Z,18.40
2019-04-21T09:40:12.176Z,18.40
2019-04-21T09:45:03.164Z,18.40
2019-04-21T09:49:51.930Z,18.40
2019-04-21T09:54:53.277Z,18.40
2019-04-21T09:59:38.721Z,18.40
2019-04-21T10:04:24.875Z,19.30
2019-04-21T10:09:18.411Z,19.30
2019-04-21T10:14:07.452Z,19.50
2019-04-21T10:18:58.763Z,19.50
2019-04-21T10:23:48.563Z,19.40
2019-04-21T10:28:39.469Z,19.50
2019-04-21T10:33:30.399Z,19.90
2019-04-21T10:38:32.758Z,20.70
2019-04-21T10:43:14.257Z,20.60
2019-04-21T10:48:05.153Z,20.70
2019-04-21T10:52:58.718Z,20.90
2019-04-21T10:57:55.968Z,21.30
2019-04-21T11:02:48.830Z,21.90
2019-04-21T11:07:57.596Z,21.90
2019-04-21T11:12:39.105Z,22.30
2019-04-21T11:17:28.202Z,22.60
2019-04-21T11:22:20.889Z,22.80
2019-04-21T11:27:10.977Z,22.80
2019-04-21T11:32:02.962Z,23.40
2019-04-21T11:36:54.385Z,24.60
2019-04-21T11:41:45.622Z,24.50
2019-04-21T11:46:36.259Z,24.90
2019-04-21T11:51:26.983Z,25.30
2019-04-21T11:56:17.256Z,25.70
2019-04-21T12:01:09.487Z,26.30
2019-04-21T12:05:59.828Z,27.30
2019-04-21T12:10:51.516Z,27.30
2019-04-21T12:15:42.977Z,27.70
2019-04-21T12:20:33.495Z,28.50
2019-04-21T12:25:25.051Z,28.40
2019-04-21T12:30:15.699Z,29.00
2019-04-21T12:35:06.317Z,29.40
2019-04-21T12:39:58.867Z,29.50
2019-04-21T12:44:49.507Z,29.40
2019-04-21T12:49:41.435Z,29.10
2019-04-21T12:54:33.124Z,29.10
2019-04-21T12:59:24.570Z,29.20
2019-04-21T13:04:15.631Z,29.10
2019-04-21T13:09:09.353Z,28.90
2019-04-21T13:13:57.765Z,28.60
2019-04-21T13:18:47.474Z,28.40
2019-04-21T13:23:39.035Z,28.40
2019-04-21T13:28:30.407Z,28.40
2019-04-21T13:33:20.978Z,28.00
2019-04-21T13:38:19.925Z,27.70
2019-04-21T13:43:04.070Z,27.30
2019-04-21T13:47:54.482Z,27.20
2019-04-21T13:52:46.742Z,27.40
2019-04-21T13:57:36.634Z,27.40
2019-04-21T14:02:28.878Z,27.10
2019-04-21T14:07:18.453Z,26.80
2019-04-21T14:12:09.717Z,26.60
2019-04-21T14:17:00.507Z,26.70
2019-04-21T14:21:53.000Z,27.00
2019-04-21T14:26:42.469Z,26.90
2019-04-21T14:31:34.653Z,26.60
2019-04-21T14:36:24.625Z,26.60
2019-04-21T14:41:15.523Z,26.70
2019-04-21T14:46:13.354Z,27.10
2019-04-21T14:51:14.987Z,27.30
2019-04-21T14:56:07.182Z,27.30
2019-04-21T15:00:58.211Z,27.10
2019-04-21T15:05:49.852Z,27.10
2019-04-21T15:10:41.540Z,27.40
2019-04-21T15:15:32.444Z,27.40
2019-04-21T15:20:23.864Z,27.50
2019-04-21T15:25:16.226Z,27.00
2019-04-21T15:30:08.992Z,27.00
2019-04-21T15:34:58.503Z,27.00
2019-04-21T15:39:50.768Z,27.20
2019-04-21T15:44:40.657Z,27.40
2019-04-21T15:54:52.210Z,26.50
2019-04-21T15:59:42.288Z,26.10
2019-04-21T16:04:32.982Z,26.00
2019-04-21T16:09:26.893Z,26.00
2019-04-21T16:14:16.726Z,25.40
2019-04-21T16:19:08.183Z,25.00
2019-04-21T16:24:00.439Z,24.90
2019-04-21T16:28:50.863Z,24.60
2019-04-21T16:33:41.068Z,24.60
2019-04-21T16:38:31.787Z,24.70
2019-04-21T16:43:22.931Z,24.50
2019-04-21T16:48:15.025Z,24.10
2019-04-21T16:53:05.986Z,23.60
2019-04-21T16:58:04.442Z,23.30
2019-04-21T17:02:48.056Z,23.40
2019-04-21T17:07:38.797Z,23.50
2019-04-21T17:12:30.696Z,22.80
2019-04-21T17:17:47.509Z,22.70
2019-04-21T17:22:11.244Z,22.40
2019-04-21T17:27:02.901Z,22.20
2019-04-21T17:31:53.285Z,22.30
2019-04-21T17:36:45.348Z,22.40
2019-04-21T17:41:42.527Z,22.00
2019-04-21T17:46:36.610Z,21.60
2019-04-21T17:51:23.563Z,21.20
2019-04-21T17:56:46.278Z,21.00
2019-04-21T18:01:26.323Z,21.20
2019-04-21T18:06:10.328Z,21.20
2019-04-21T18:11:00.290Z,20.80
2019-04-21T18:15:54.402Z,20.30
2019-04-21T18:20:32.143Z,19.80
2019-04-21T18:25:33.241Z,19.70
2019-04-21T18:30:26.547Z,19.80
2019-04-21T18:35:20.868Z,19.30
2019-04-21T18:40:20.824Z,19.30
2019-04-21T18:49:54.447Z,18.40
2019-04-21T18:54:58.153Z,18.20
2019-04-21T18:59:39.823Z,18.30
2019-04-21T19:04:32.424Z,18.40
2019-04-21T19:09:47.507Z,18.00
2019-04-21T19:19:41.071Z,16.80
2019-04-21T19:24:18.585Z,16.80
2019-04-21T19:29:01.475Z,17.00
2019-04-21T19:33:45.526Z,16.70
2019-04-21T19:38:35.473Z,16.20
2019-04-21T19:43:38.459Z,16.20
2019-04-21T19:48:24.021Z,15.80
2019-04-21T19:53:06.425Z,15.50
2019-04-21T19:57:49.232Z,15.70
2019-04-21T20:02:40.486Z,15.90
2019-04-21T20:07:46.516Z,15.10
2019-04-21T20:12:49.780Z,14.70
2019-04-21T20:17:34.782Z,14.40
2019-04-21T20:22:07.051Z,14.40
2019-04-21T20:27:04.746Z,14.50
2019-04-21T20:32:14.745Z,14.60
2019-04-21T20:37:05.892Z,14.50
2019-04-21T20:41:40.885Z,14.10
2019-04-21T20:46:38.873Z,13.70
2019-04-21T20:51:28.378Z,13.40
2019-04-21T20:56:13.268Z,13.20
2019-04-21T21:01:25.664Z,13.20
2019-04-21T21:05:54.236Z,13.50
2019-04-21T21:10:50.048Z,13.60
2019-04-21T21:15:51.379Z,13.20
2019-04-21T21:20:35.717Z,12.60
2019-04-21T21:25:38.225Z,12.60
2019-04-21T21:30:14.348Z,12.80
2019-04-21T21:35:10.869Z,12.70
2019-04-21T21:40:04.364Z,13.20
2019-04-21T21:44:35.719Z,13.10
2019-04-21T21:49:37.112Z,12.80
2019-04-21T21:54:18.012Z,12.30
2019-04-21T21:59:15.069Z,12.20
2019-04-21T22:04:08.771Z,12.30
2019-04-21T22:08:50.497Z,12.70
2019-04-21T22:13:50.955Z,12.40
2019-04-21T22:18:51.146Z,12.30
2019-04-21T22:23:36.058Z,12.00
2019-04-21T22:28:15.728Z,11.70
2019-04-21T22:33:10.110Z,11.50
2019-04-21T22:38:16.137Z,11.50
2019-04-21T22:43:00.613Z,11.80
2019-04-21T22:47:41.531Z,11.80
2019-04-21T22:52:32.352Z,11.50
2019-04-21T22:57:25.170Z,11.20
2019-04-21T23:02:17.995Z,10.90
2019-04-21T23:07:10.182Z,10.60
2019-04-21T23:11:56.645Z,10.80
2019-04-21T23:16:50.689Z,11.00
2019-04-21T23:21:59.578Z,11.10
2019-04-21T23:26:42.424Z,10.70
2019-04-21T23:31:39.871Z,10.10
2019-04-21T23:36:17.917Z,9.90
2019-04-21T23:41:05.958Z,9.90
2019-04-21T23:45:54.061Z,10.10
2019-04-21T23:50:51.215Z,10.50
2019-04-21T23:55:37.094Z,10.10
